createdAt,value
2023-01-20T00:02:11.082Z,-0.17
2023-01-20T00:04:37.717Z,-0.09
2023-01-20T00:07:04.313Z,-0.12
2023-01-20T00:09:30.932Z,-0.27
2023-01-20T00:11:57.468Z,-0.34
2023-01-20T00:14:25.654Z,-0.10
2023-01-20T00:16:52.259Z,-0.16
2023-01-20T00:19:18.969Z,-0.17
2023-01-20T00:21:45.516Z,-0.11
2023-01-20T00:24:12.043Z,-0.10
2023-01-20T00:26:38.743Z,-0.27
2023-01-20T00:29:05.226Z,-0.23
2023-01-20T00:31:32.244Z,-0.29
2023-01-20T00:34:00.364Z,-0.36
2023-01-20T00:36:28.602Z,-0.31
2023-01-20T00:38:55.241Z,-0.29
2023-01-20T00:41:22.079Z,-0.26
2023-01-20T00:43:49.049Z,-0.37
2023-01-20T00:46:15.823Z,-0.37
2023-01-20T00:48:42.926Z,-0.32
2023-01-20T00:51:10.347Z,-0.30
2023-01-20T00:53:36.931Z,-0.40
2023-01-20T00:56:03.904Z,-0.40
2023-01-20T00:58:30.461Z,-0.34
2023-01-20T01:00:58.696Z,-0.32
2023-01-20T01:03:28.219Z,-0.39
2023-01-20T01:05:55.038Z,-0.33
2023-01-20T01:08:21.695Z,-0.17
2023-01-20T01:10:48.330Z,-0.12
2023-01-20T01:13:14.922Z,-0.26
2023-01-20T01:15:48.200Z,-0.30
2023-01-20T01:18:15.077Z,-0.43
2023-01-20T01:20:41.536Z,-0.44
2023-01-20T01:23:07.996Z,-0.43
2023-01-20T01:25:34.829Z,-0.30
2023-01-20T01:28:01.315Z,-0.34
2023-01-20T01:30:27.936Z,-0.30
2023-01-20T01:32:54.635Z,-0.22
2023-01-20T01:35:21.130Z,-0.23
2023-01-20T01:37:47.704Z,-0.19
2023-01-20T01:40:14.402Z,-0.14
2023-01-20T01:42:42.874Z,-0.28
2023-01-20T01:45:12.639Z,-0.24
2023-01-20T01:48:03.068Z,-0.09
2023-01-20T01:50:39.243Z,-0.15
2023-01-20T01:53:06.267Z,-0.25
2023-01-20T01:55:35.197Z,-0.43
2023-01-20T01:58:02.975Z,-0.49
2023-01-20T02:00:29.563Z,-0.52
2023-01-20T02:02:56.740Z,-0.50
2023-01-20T02:05:25.189Z,-0.48
2023-01-20T02:07:52.322Z,-0.34
2023-01-20T02:10:18.858Z,-0.39
2023-01-20T02:12:49.415Z,-0.50
2023-01-20T02:15:17.346Z,-0.54
2023-01-20T02:17:49.621Z,-0.55
2023-01-20T02:20:28.435Z,-0.56
2023-01-20T02:22:59.421Z,-0.34
2023-01-20T02:25:46.626Z,-0.50
2023-01-20T02:28:16.076Z,-0.48
2023-01-20T02:31:08.674Z,-0.35
2023-01-20T02:33:41.284Z,-0.37
2023-01-20T02:36:20.832Z,-0.35
2023-01-20T02:38:55.249Z,-0.35
2023-01-20T02:41:35.263Z,-0.33
2023-01-20T02:44:15.986Z,-0.33
2023-01-20T02:47:12.040Z,-0.29
2023-01-20T02:50:07.691Z,-0.25
2023-01-20T02:52:44.414Z,-0.37
2023-01-20T02:55:15.568Z,-0.43
2023-01-20T02:57:45.931Z,-0.40
2023-01-20T03:00:25.948Z,-0.35
2023-01-20T03:02:53.713Z,-0.37
2023-01-20T03:05:41.336Z,-0.42
2023-01-20T03:08:10.039Z,-0.48
2023-01-20T03:10:37.787Z,-0.36
2023-01-20T03:13:36.517Z,-0.47
2023-01-20T03:16:09.739Z,-0.50
2023-01-20T03:18:36.907Z,-0.51
2023-01-20T03:21:05.638Z,-0.34
2023-01-20T03:23:34.911Z,-0.39
2023-01-20T03:26:13.788Z,-0.36
2023-01-20T03:28:44.684Z,-0.46
2023-01-20T03:31:30.440Z,-0.49
2023-01-20T03:33:59.055Z,-0.32
2023-01-20T03:36:27.359Z,-0.39
2023-01-20T03:38:55.152Z,-0.26
2023-01-20T03:41:40.094Z,-0.16
2023-01-20T03:44:12.889Z,-0.33
2023-01-20T03:46:46.247Z,-0.46
2023-01-20T03:49:24.417Z,-0.48
2023-01-20T03:51:55.408Z,-0.38
2023-01-20T03:54:28.365Z,-0.34
2023-01-20T03:57:06.764Z,-0.32
2023-01-20T03:59:36.017Z,-0.23
2023-01-20T04:02:04.492Z,-0.30
2023-01-20T04:04:33.713Z,-0.26
2023-01-20T04:07:00.511Z,-0.15
2023-01-20T04:09:29.581Z,-0.18
2023-01-20T04:11:56.243Z,-0.05
2023-01-20T04:14:22.889Z,-0.29
2023-01-20T04:16:57.420Z,-0.29
2023-01-20T04:19:24.676Z,-0.26
2023-01-20T04:22:07.760Z,-0.20
2023-01-20T04:24:57.430Z,-0.31
2023-01-20T04:27:23.972Z,-0.41
2023-01-20T04:29:50.527Z,-0.46
2023-01-20T04:32:17.075Z,-0.36
2023-01-20T04:34:43.602Z,-0.41
2023-01-20T04:37:10.067Z,-0.45
2023-01-20T04:39:36.622Z,-0.42
2023-01-20T04:42:03.725Z,-0.38
2023-01-20T04:44:30.214Z,-0.37
2023-01-20T04:46:58.742Z,-0.31
2023-01-20T04:49:25.453Z,-0.32
2023-01-20T04:51:51.883Z,-0.24
2023-01-20T04:54:18.650Z,-0.24
2023-01-20T04:56:45.443Z,-0.26
2023-01-20T04:59:11.990Z,-0.23
2023-01-20T05:01:38.778Z,-0.27
2023-01-20T05:04:05.502Z,-0.22
2023-01-20T05:06:31.964Z,-0.18
2023-01-20T05:08:58.746Z,-0.24
2023-01-20T05:11:25.358Z,-0.23
2023-01-20T05:13:51.810Z,-0.20
2023-01-20T05:16:25.090Z,-0.16
2023-01-20T05:18:51.703Z,-0.22
2023-01-20T05:21:18.229Z,-0.24
2023-01-20T05:23:44.820Z,-0.29
2023-01-20T05:26:11.445Z,-0.31
2023-01-20T05:28:38.028Z,-0.15
2023-01-20T05:31:04.713Z,-0.12
2023-01-20T05:33:31.387Z,-0.06
2023-01-20T05:35:57.841Z,-0.04
2023-01-20T05:38:24.370Z,0.03
2023-01-20T05:40:50.984Z,-0.01
2023-01-20T05:43:17.472Z,-0.13
2023-01-20T05:45:44.103Z,-0.20
2023-01-20T05:48:10.715Z,-0.23
2023-01-20T05:50:37.244Z,-0.22
2023-01-20T05:53:03.852Z,-0.07
2023-01-20T05:55:30.467Z,-0.10
2023-01-20T05:57:56.931Z,0.06
2023-01-20T06:00:23.779Z,0.06
2023-01-20T06:02:50.476Z,0.12
2023-01-20T06:05:17.614Z,0.17
2023-01-20T06:07:44.599Z,0.18
2023-01-20T06:10:11.595Z,0.18
2023-01-20T06:12:38.148Z,0.24
2023-01-20T06:15:05.258Z,0.20
2023-01-20T06:17:31.855Z,0.23
2023-01-20T06:19:58.696Z,0.18
2023-01-20T06:22:26.277Z,0.03
2023-01-20T06:24:52.858Z,0.10
2023-01-20T06:27:19.847Z,0.09
2023-01-20T06:29:46.566Z,0.08
2023-01-20T06:32:13.073Z,0.01
2023-01-20T06:34:39.787Z,-0.04
2023-01-20T06:37:06.685Z,-0.04
2023-01-20T06:39:33.241Z,-0.01
2023-01-20T06:42:00.417Z,0.04
2023-01-20T06:44:27.253Z,0.05
2023-01-20T06:46:54.252Z,0.01
2023-01-20T06:49:20.808Z,0.04
2023-01-20T06:51:49.024Z,0.03
2023-01-20T06:54:16.411Z,0.03
2023-01-20T06:56:43.015Z,0.04
2023-01-20T06:59:10.777Z,0.04
2023-01-20T07:01:37.597Z,0.03
2023-01-20T07:04:04.126Z,0.05
2023-01-20T07:06:38.915Z,0.07
2023-01-20T07:09:07.312Z,0.13
2023-01-20T07:11:35.774Z,0.10
2023-01-20T07:14:03.334Z,0.20
2023-01-20T07:16:30.069Z,0.15
2023-01-20T07:18:56.606Z,0.11
2023-01-20T07:21:26.263Z,0.10
2023-01-20T07:23:53.142Z,0.14
2023-01-20T07:26:22.216Z,0.19
2023-01-20T07:28:49.256Z,0.24
2023-01-20T07:31:18.215Z,0.27
2023-01-20T07:33:45.469Z,0.23
2023-01-20T07:36:12.994Z,0.25
2023-01-20T07:38:40.452Z,0.25
2023-01-20T07:41:10.905Z,0.30
2023-01-20T07:43:38.179Z,0.33
2023-01-20T07:46:05.279Z,0.35
2023-01-20T07:48:33.378Z,0.35
2023-01-20T07:51:03.414Z,0.37
2023-01-20T07:53:30.775Z,0.33
2023-01-20T07:56:01.172Z,0.31
2023-01-20T07:58:28.926Z,0.38
2023-01-20T08:00:55.813Z,0.37
2023-01-20T08:03:23.280Z,0.36
2023-01-20T08:05:50.074Z,0.32
2023-01-20T08:08:16.736Z,0.34
2023-01-20T08:10:43.341Z,0.37
2023-01-20T08:13:10.197Z,0.35
2023-01-20T08:15:37.263Z,0.34
2023-01-20T08:18:04.333Z,0.36
2023-01-20T08:20:31.001Z,0.40
2023-01-20T08:22:57.704Z,0.44
2023-01-20T08:25:24.324Z,0.47
2023-01-20T08:27:50.948Z,0.47
2023-01-20T08:30:17.946Z,0.46
2023-01-20T08:32:44.639Z,0.47
2023-01-20T08:35:11.207Z,0.51
2023-01-20T08:37:37.935Z,0.58
2023-01-20T08:40:09.179Z,0.59
2023-01-20T08:42:37.346Z,0.60
2023-01-20T08:45:05.866Z,0.55
2023-01-20T08:47:36.084Z,0.57
2023-01-20T08:50:04.034Z,0.56
2023-01-20T08:52:30.729Z,0.60
2023-01-20T08:54:58.702Z,0.65
2023-01-20T08:57:26.801Z,0.67
2023-01-20T08:59:54.197Z,0.65
2023-01-20T09:02:20.798Z,0.70
2023-01-20T09:04:50.471Z,0.78
2023-01-20T09:07:18.614Z,0.78
2023-01-20T09:09:45.755Z,0.94
2023-01-20T09:12:12.623Z,0.97
2023-01-20T09:14:41.254Z,1.03
2023-01-20T09:17:07.809Z,1.05
2023-01-20T09:19:34.403Z,1.04
2023-01-20T09:22:01.150Z,1.09
2023-01-20T09:24:27.752Z,1.30
2023-01-20T09:26:54.639Z,1.27
2023-01-20T09:29:21.487Z,1.31
2023-01-20T09:31:53.442Z,1.42
2023-01-20T09:34:24.464Z,1.42
2023-01-20T09:36:52.983Z,1.57
2023-01-20T09:39:38.871Z,1.55
2023-01-20T09:42:39.907Z,1.52
2023-01-20T09:45:28.041Z,1.54
2023-01-20T09:48:14.132Z,1.54
2023-01-20T09:51:13.438Z,1.79
2023-01-20T09:53:46.100Z,1.88
2023-01-20T09:56:16.717Z,1.75
2023-01-20T09:58:57.933Z,1.75
2023-01-20T10:01:36.871Z,1.65
2023-01-20T10:04:12.330Z,1.63
2023-01-20T10:06:38.970Z,1.63
2023-01-20T10:09:26.197Z,1.59
2023-01-20T10:12:00.050Z,1.66
2023-01-20T10:14:37.343Z,1.57
2023-01-20T10:17:13.164Z,1.62
2023-01-20T10:19:44.343Z,1.52
2023-01-20T10:22:26.475Z,1.66
2023-01-20T10:24:59.797Z,1.67
2023-01-20T10:27:28.972Z,1.54
2023-01-20T10:30:06.258Z,1.47
2023-01-20T10:32:36.677Z,1.50
2023-01-20T10:35:19.008Z,1.46
2023-01-20T10:37:45.628Z,1.40
2023-01-20T10:40:21.638Z,1.59
2023-01-20T10:42:49.798Z,1.42
2023-01-20T10:45:24.762Z,1.41
2023-01-20T10:48:10.117Z,1.39
2023-01-20T10:51:01.752Z,1.36
2023-01-20T10:53:49.078Z,1.41
2023-01-20T10:56:32.808Z,1.44
2023-01-20T10:59:04.558Z,1.41
2023-01-20T11:01:31.410Z,1.43
2023-01-20T11:03:58.034Z,1.42
2023-01-20T11:06:26.872Z,1.49
2023-01-20T11:08:54.383Z,1.46
2023-01-20T11:11:23.356Z,1.42
2023-01-20T11:13:53.820Z,1.48
2023-01-20T11:16:25.068Z,1.52
2023-01-20T11:19:02.889Z,1.79
2023-01-20T11:21:31.749Z,1.76
2023-01-20T11:23:59.446Z,1.84
2023-01-20T11:26:30.225Z,1.72
2023-01-20T11:29:24.109Z,1.71
2023-01-20T11:31:52.997Z,1.64
2023-01-20T11:34:32.452Z,1.58
2023-01-20T11:37:04.887Z,1.50
2023-01-20T11:39:36.988Z,1.52
2023-01-20T11:42:10.589Z,1.58
2023-01-20T11:44:47.705Z,1.74
2023-01-20T11:47:37.525Z,1.87
2023-01-20T11:50:18.142Z,2.02
2023-01-20T11:52:48.519Z,2.05
2023-01-20T11:55:23.721Z,2.02
2023-01-20T11:57:56.552Z,1.98
2023-01-20T12:00:41.735Z,1.91
2023-01-20T12:03:11.842Z,1.82
2023-01-20T12:06:20.611Z,1.72
2023-01-20T12:08:50.585Z,1.65
2023-01-20T12:11:41.845Z,1.63
2023-01-20T12:14:28.861Z,1.60
2023-01-20T12:16:58.413Z,1.43
2023-01-20T12:19:32.790Z,1.42
2023-01-20T12:22:03.625Z,1.36
2023-01-20T12:24:59.442Z,1.27
2023-01-20T12:27:27.412Z,1.22
2023-01-20T12:29:58.495Z,1.24
2023-01-20T12:32:25.165Z,1.14
2023-01-20T12:34:51.916Z,0.93
2023-01-20T12:37:27.934Z,0.93
2023-01-20T12:40:16.651Z,0.92
2023-01-20T12:43:19.249Z,0.80
2023-01-20T12:45:56.043Z,0.72
2023-01-20T12:48:44.862Z,0.69
2023-01-20T12:51:35.960Z,0.60
2023-01-20T12:54:14.427Z,0.70
2023-01-20T12:56:43.557Z,0.69
2023-01-20T12:59:29.844Z,0.66
2023-01-20T13:02:37.555Z,0.58
2023-01-20T13:05:21.929Z,0.57
2023-01-20T13:07:58.466Z,0.60
2023-01-20T13:10:55.436Z,0.69
2023-01-20T13:13:57.639Z,0.69
2023-01-20T13:16:42.811Z,0.69
2023-01-20T13:19:24.752Z,0.65
2023-01-20T13:22:06.991Z,0.69
2023-01-20T13:24:34.653Z,0.70
2023-01-20T13:27:01.903Z,0.71
2023-01-20T13:29:37.219Z,0.68
2023-01-20T13:32:18.214Z,0.72
2023-01-20T13:34:44.856Z,0.73
2023-01-20T13:37:23.645Z,0.78
2023-01-20T13:39:50.696Z,0.72
2023-01-20T13:42:29.304Z,0.60
2023-01-20T13:45:14.678Z,0.67
2023-01-20T13:47:57.802Z,0.59
2023-01-20T13:50:34.016Z,0.71
2023-01-20T13:53:00.692Z,0.70
2023-01-20T13:55:48.169Z,0.67
2023-01-20T13:58:15.458Z,0.61
2023-01-20T14:00:42.620Z,0.55
2023-01-20T14:03:40.286Z,0.53
2023-01-20T14:06:19.251Z,0.50
2023-01-20T14:08:50.422Z,0.48
2023-01-20T14:11:27.341Z,0.55
2023-01-20T14:14:05.534Z,0.54
2023-01-20T14:16:35.337Z,0.44
2023-01-20T14:19:15.137Z,0.39
2023-01-20T14:21:42.411Z,0.37
2023-01-20T14:24:28.516Z,0.23
2023-01-20T14:27:19.567Z,0.13
2023-01-20T14:29:47.250Z,0.15
2023-01-20T14:32:20.595Z,0.16
2023-01-20T14:34:49.000Z,0.16
2023-01-20T14:37:30.159Z,0.10
2023-01-20T14:39:59.367Z,0.04
2023-01-20T14:42:28.263Z,0.03
2023-01-20T14:44:55.946Z,-0.01
2023-01-20T14:47:24.252Z,0.01
2023-01-20T14:49:52.351Z,0.00
2023-01-20T14:52:25.670Z,0.03
2023-01-20T14:54:56.036Z,0.03
2023-01-20T14:57:27.010Z,0.04
2023-01-20T15:00:11.580Z,0.03
2023-01-20T15:02:40.513Z,0.05
2023-01-20T15:05:28.057Z,0.09
2023-01-20T15:08:25.324Z,0.12
2023-01-20T15:11:18.177Z,0.10
2023-01-20T15:14:08.624Z,0.14
2023-01-20T15:16:44.678Z,0.11
2023-01-20T15:19:13.947Z,0.11
2023-01-20T15:21:43.331Z,0.10
2023-01-20T15:24:16.556Z,0.09
2023-01-20T15:26:44.144Z,0.08
2023-01-20T15:29:23.871Z,0.06
2023-01-20T15:31:51.418Z,0.08
2023-01-20T15:34:18.929Z,0.11
2023-01-20T15:36:47.095Z,0.13
2023-01-20T15:39:24.902Z,0.14
2023-01-20T15:41:55.015Z,0.20
2023-01-20T15:44:22.285Z,0.19
2023-01-20T15:46:48.999Z,0.23
2023-01-20T15:49:16.263Z,0.18
2023-01-20T15:51:43.993Z,0.19
2023-01-20T15:54:11.318Z,0.20
2023-01-20T15:56:41.746Z,0.23
2023-01-20T15:59:16.552Z,0.23
2023-01-20T16:01:47.443Z,0.26
2023-01-20T16:04:14.116Z,0.32
2023-01-20T16:06:42.443Z,0.31
2023-01-20T16:09:30.086Z,0.32
2023-01-20T16:11:56.692Z,0.41
2023-01-20T16:14:23.202Z,0.48
2023-01-20T16:16:49.863Z,0.48
2023-01-20T16:19:17.042Z,0.38
2023-01-20T16:21:45.456Z,0.36
2023-01-20T16:24:12.689Z,0.34
2023-01-20T16:26:40.061Z,0.29
2023-01-20T16:29:08.761Z,0.22
2023-01-20T16:31:35.636Z,0.20
2023-01-20T16:34:02.427Z,0.16
2023-01-20T16:36:29.019Z,0.06
2023-01-20T16:38:55.700Z,0.02
2023-01-20T16:41:30.692Z,0.01
2023-01-20T16:43:58.695Z,-0.02
2023-01-20T16:46:29.607Z,-0.10
2023-01-20T16:49:03.550Z,-0.22
2023-01-20T16:51:31.124Z,-0.31
2023-01-20T16:53:58.168Z,-0.33
2023-01-20T16:56:30.029Z,-0.35
2023-01-20T16:58:58.421Z,-0.33
2023-01-20T17:01:25.690Z,-0.35
2023-01-20T17:03:56.861Z,-0.33
2023-01-20T17:06:26.052Z,-0.37
2023-01-20T17:08:54.299Z,-0.40
2023-01-20T17:11:26.091Z,-0.40
2023-01-20T17:13:53.065Z,-0.43
2023-01-20T17:16:20.584Z,-0.35
2023-01-20T17:18:51.365Z,-0.29
2023-01-20T17:21:20.520Z,-0.47
2023-01-20T17:23:59.572Z,-0.53
2023-01-20T17:26:26.247Z,-0.56
2023-01-20T17:29:00.112Z,-0.59
2023-01-20T17:31:28.443Z,-0.59
2023-01-20T17:33:55.076Z,-0.59
2023-01-20T17:36:21.666Z,-0.57
2023-01-20T17:38:48.426Z,-0.59
2023-01-20T17:41:15.504Z,-0.59
2023-01-20T17:43:44.213Z,-0.56
2023-01-20T17:46:15.128Z,-0.56
2023-01-20T17:48:42.185Z,-0.62
2023-01-20T17:51:13.199Z,-0.56
2023-01-20T17:53:41.518Z,-0.60
2023-01-20T17:56:12.923Z,-0.56
2023-01-20T17:58:44.529Z,-0.58
2023-01-20T18:01:19.793Z,-0.57
2023-01-20T18:03:48.330Z,-0.56
2023-01-20T18:06:16.481Z,-0.55
2023-01-20T18:08:44.114Z,-0.57
2023-01-20T18:11:19.818Z,-0.55
2023-01-20T18:13:47.738Z,-0.55
2023-01-20T18:16:16.228Z,-0.52
2023-01-20T18:18:44.199Z,-0.53
2023-01-20T18:21:21.682Z,-0.51
2023-01-20T18:23:50.130Z,-0.54
2023-01-20T18:26:18.777Z,-0.49
2023-01-20T18:28:47.956Z,-0.48
2023-01-20T18:31:19.901Z,-0.35
2023-01-20T18:33:49.112Z,-0.36
2023-01-20T18:36:19.931Z,-0.46
2023-01-20T18:38:54.176Z,-0.45
2023-01-20T18:41:21.854Z,-0.44
2023-01-20T18:43:49.241Z,-0.43
2023-01-20T18:46:16.398Z,-0.46
2023-01-20T18:48:47.366Z,-0.37
2023-01-20T18:51:15.279Z,-0.43
2023-01-20T18:53:44.065Z,-0.43
2023-01-20T18:56:12.715Z,-0.41
2023-01-20T18:58:41.261Z,-0.44
2023-01-20T19:01:09.804Z,-0.41
2023-01-20T19:03:37.799Z,-0.38
2023-01-20T19:06:05.871Z,-0.41
2023-01-20T19:08:32.666Z,-0.41
2023-01-20T19:11:03.854Z,-0.37
2023-01-20T19:13:30.514Z,-0.36
2023-01-20T19:15:57.784Z,-0.33
2023-01-20T19:18:24.874Z,-0.32
2023-01-20T19:20:51.614Z,-0.32
2023-01-20T19:23:18.975Z,-0.32
2023-01-20T19:25:45.540Z,-0.31
2023-01-20T19:28:14.220Z,-0.30
2023-01-20T19:30:42.041Z,-0.30
2023-01-20T19:33:12.078Z,-0.22
2023-01-20T19:35:41.146Z,-0.22
2023-01-20T19:38:08.601Z,-0.23
2023-01-20T19:40:35.124Z,-0.22
2023-01-20T19:43:01.733Z,-0.17
2023-01-20T19:45:40.408Z,-0.23
2023-01-20T19:48:11.542Z,-0.23
2023-01-20T19:50:38.311Z,-0.19
2023-01-20T19:53:04.773Z,-0.18
2023-01-20T19:55:31.326Z,-0.18
2023-01-20T19:57:57.967Z,-0.16
2023-01-20T20:00:24.496Z,-0.17
2023-01-20T20:02:54.481Z,-0.17
2023-01-20T20:05:21.257Z,-0.17
2023-01-20T20:07:47.747Z,-0.17
2023-01-20T20:10:17.697Z,-0.09
2023-01-20T20:12:44.790Z,-0.16
2023-01-20T20:15:11.466Z,-0.17
2023-01-20T20:17:38.055Z,-0.12
2023-01-20T20:20:05.682Z,-0.05
2023-01-20T20:22:32.181Z,-0.05
2023-01-20T20:24:58.865Z,-0.04
2023-01-20T20:27:25.504Z,0.01
2023-01-20T20:29:54.501Z,-0.03
2023-01-20T20:32:21.013Z,-0.12
2023-01-20T20:34:47.685Z,-0.14
2023-01-20T20:37:14.319Z,-0.16
2023-01-20T20:39:45.762Z,-0.16
2023-01-20T20:42:12.680Z,-0.17
2023-01-20T20:44:41.436Z,-0.12
2023-01-20T20:47:07.986Z,-0.14
2023-01-20T20:49:34.881Z,-0.19
2023-01-20T20:52:04.323Z,-0.15
2023-01-20T20:54:30.833Z,-0.14
2023-01-20T20:56:57.517Z,-0.18
2023-01-20T20:59:24.770Z,-0.18
2023-01-20T21:01:52.471Z,-0.11
2023-01-20T21:04:19.573Z,-0.11
2023-01-20T21:06:46.068Z,-0.11
2023-01-20T21:09:12.654Z,-0.14
2023-01-20T21:11:41.540Z,-0.15
2023-01-20T21:14:09.522Z,-0.14
2023-01-20T21:16:36.207Z,-0.14
2023-01-20T21:19:03.403Z,-0.18
2023-01-20T21:21:29.941Z,-0.20
2023-01-20T21:23:57.784Z,-0.23
2023-01-20T21:26:30.032Z,-0.28
2023-01-20T21:28:57.382Z,-0.27
2023-01-20T21:31:26.649Z,-0.27
2023-01-20T21:33:55.348Z,-0.31
2023-01-20T21:36:22.528Z,-0.30
2023-01-20T21:38:49.537Z,-0.32
2023-01-20T21:41:16.682Z,-0.31
2023-01-20T21:44:03.203Z,-0.29
2023-01-20T21:46:32.436Z,-0.31
2023-01-20T21:49:17.545Z,-0.30
2023-01-20T21:52:02.823Z,-0.31
2023-01-20T21:54:30.077Z,-0.23
2023-01-20T21:56:56.963Z,-0.32
2023-01-20T21:59:23.549Z,-0.33
2023-01-20T22:01:50.429Z,-0.26
2023-01-20T22:04:16.996Z,-0.33
2023-01-20T22:06:43.648Z,-0.32
2023-01-20T22:09:10.791Z,-0.34
2023-01-20T22:11:37.469Z,-0.37
2023-01-20T22:14:04.445Z,-0.37
2023-01-20T22:16:32.255Z,-0.34
2023-01-20T22:18:58.814Z,-0.38
2023-01-20T22:21:25.775Z,-0.37
2023-01-20T22:23:53.496Z,-0.38
2023-01-20T22:26:20.095Z,-0.37
2023-01-20T22:28:46.880Z,-0.34
2023-01-20T22:31:17.638Z,-0.40
2023-01-20T22:33:44.278Z,-0.43
2023-01-20T22:36:11.001Z,-0.45
2023-01-20T22:38:37.471Z,-0.44
2023-01-20T22:41:04.976Z,-0.47
2023-01-20T22:43:31.743Z,-0.48
2023-01-20T22:45:59.702Z,-0.50
2023-01-20T22:48:26.777Z,-0.50
2023-01-20T22:50:54.624Z,-0.49
2023-01-20T22:53:21.327Z,-0.48
2023-01-20T22:56:00.381Z,-0.46
2023-01-20T22:58:27.567Z,-0.40
2023-01-20T23:00:54.288Z,-0.35
2023-01-20T23:03:20.803Z,-0.39
2023-01-20T23:05:54.613Z,-0.50
2023-01-20T23:08:21.305Z,-0.49
2023-01-20T23:10:47.899Z,-0.51
2023-01-20T23:13:16.293Z,-0.51
2023-01-20T23:15:43.839Z,-0.52
2023-01-20T23:18:11.045Z,-0.53
2023-01-20T23:20:38.143Z,-0.52
2023-01-20T23:23:05.091Z,-0.49
2023-01-20T23:25:31.560Z,-0.47
2023-01-20T23:27:58.272Z,-0.49
2023-01-20T23:30:24.950Z,-0.46
2023-01-20T23:32:51.494Z,-0.44
2023-01-20T23:35:18.178Z,-0.46
2023-01-20T23:37:44.791Z,-0.48
2023-01-20T23:40:11.876Z,-0.50
2023-01-20T23:42:38.450Z,-0.52
2023-01-20T23:45:05.644Z,-0.50
2023-01-20T23:47:32.125Z,-0.48
2023-01-20T23:49:58.649Z,-0.52
2023-01-20T23:52:26.108Z,-0.51
2023-01-20T23:54:53.327Z,-0.51
2023-01-20T23:57:20.630Z,-0.49
2023-01-20T23:59:47.240Z,-0.52
